createdAt,value
2018-08-23T00:00:18.237Z,1020.02
2018-08-23T00:01:18.824Z,1020.07
2018-08-23T00:02:19.407Z,1020.04
2018-08-23T00:03:20.037Z,1020.03
2018-08-23T00:04:20.624Z,1019.98
2018-08-23T00:05:21.209Z,1020.01
2018-08-23T00:06:21.841Z,1020.03
2018-08-23T00:07:22.423Z,1020.01
2018-08-23T00:08:23.021Z,1020.01
2018-08-23T00:09:23.634Z,1020.03
2018-08-23T00:10:24.283Z,1020.01
2018-08-23T00:11:24.860Z,1019.98
2018-08-23T00:12:25.442Z,1019.97
2018-08-23T00:13:26.023Z,1019.96
2018-08-23T00:14:26.610Z,1019.97
2018-08-23T00:15:27.196Z,1019.93
2018-08-23T00:16:27.777Z,1019.93
2018-08-23T00:17:28.417Z,1019.93
2018-08-23T00:18:28.999Z,1019.95
2018-08-23T00:19:29.586Z,1019.98
2018-08-23T00:20:30.173Z,1019.96
2018-08-23T00:21:30.756Z,1019.98
2018-08-23T00:22:31.383Z,1019.91
2018-08-23T00:23:31.972Z,1019.94
2018-08-23T00:24:32.558Z,1019.93
2018-08-23T00:25:33.140Z,1019.95
2018-08-23T00:26:33.731Z,1019.90
2018-08-23T00:27:34.365Z,1019.90
2018-08-23T00:28:34.967Z,1019.95
2018-08-23T00:29:35.537Z,1019.92
2018-08-23T00:30:36.120Z,1019.95
2018-08-23T00:31:36.749Z,1019.93
2018-08-23T00:32:37.379Z,1019.93
2018-08-23T00:33:37.964Z,1019.94
2018-08-23T00:34:38.550Z,1019.93
2018-08-23T00:35:39.132Z,1019.97
2018-08-23T00:36:39.720Z,1019.93
2018-08-23T00:37:40.318Z,1019.92
2018-08-23T00:38:40.893Z,1019.92
2018-08-23T00:39:41.572Z,1019.87
2018-08-23T00:40:42.153Z,1019.80
2018-08-23T00:41:42.892Z,1019.85
2018-08-23T00:42:43.529Z,1019.89
2018-08-23T00:43:44.117Z,1019.87
2018-08-23T00:44:44.753Z,1019.90
2018-08-23T00:45:45.337Z,1019.96
2018-08-23T00:46:45.916Z,1019.88
2018-08-23T00:47:46.508Z,1019.87
2018-08-23T00:48:47.095Z,1019.78
2018-08-23T00:49:47.683Z,1019.77
2018-08-23T00:50:48.265Z,1019.78
2018-08-23T00:51:48.854Z,1019.77
2018-08-23T00:52:49.437Z,1019.79
2018-08-23T00:53:50.077Z,1019.77
2018-08-23T00:54:50.664Z,1019.82
2018-08-23T00:55:51.247Z,1019.86
2018-08-23T00:56:51.832Z,1019.87
2018-08-23T00:57:52.419Z,1019.82
2018-08-23T00:58:53.056Z,1019.84
2018-08-23T00:59:53.642Z,1019.80
2018-08-23T01:00:54.281Z,1019.73
2018-08-23T01:01:54.914Z,1019.72
2018-08-23T01:02:55.500Z,1019.72
2018-08-23T01:03:56.132Z,1019.75
2018-08-23T01:04:56.719Z,1019.74
2018-08-23T01:05:57.305Z,1019.80
2018-08-23T01:06:57.942Z,1019.72
2018-08-23T01:07:58.528Z,1019.73
2018-08-23T01:08:59.113Z,1019.69
2018-08-23T01:09:59.699Z,1019.74
2018-08-23T01:11:00.284Z,1019.77
2018-08-23T01:12:00.870Z,1019.78
2018-08-23T01:13:01.450Z,1019.79
2018-08-23T01:14:02.038Z,1019.81
2018-08-23T01:15:02.622Z,1019.79
2018-08-23T01:16:03.259Z,1019.79
2018-08-23T01:17:03.869Z,1019.81
2018-08-23T01:18:04.427Z,1019.82
2018-08-23T01:19:05.065Z,1019.78
2018-08-23T01:20:05.651Z,1019.76
2018-08-23T01:21:06.233Z,1019.74
2018-08-23T01:22:06.869Z,1019.76
2018-08-23T01:23:07.451Z,1019.66
2018-08-23T01:24:08.033Z,1019.76
2018-08-23T01:25:08.621Z,1019.71
2018-08-23T01:26:09.208Z,1019.72
2018-08-23T01:27:09.827Z,1019.75
2018-08-23T01:28:10.374Z,1019.75
2018-08-23T01:29:10.962Z,1019.73
2018-08-23T01:30:11.545Z,1019.71
2018-08-23T01:31:12.178Z,1019.69
2018-08-23T01:32:12.763Z,1019.68
2018-08-23T01:33:13.350Z,1019.68
2018-08-23T01:34:13.932Z,1019.65
2018-08-23T01:35:14.566Z,1019.64
2018-08-23T01:36:15.149Z,1019.68
2018-08-23T01:37:15.733Z,1019.73
2018-08-23T01:38:16.321Z,1019.69
2018-08-23T01:39:16.959Z,1019.72
2018-08-23T01:40:17.593Z,1019.74
2018-08-23T01:41:18.173Z,1019.72
2018-08-23T01:42:18.764Z,1019.84
2018-08-23T01:43:19.353Z,1019.87
2018-08-23T01:44:19.939Z,1019.80
2018-08-23T01:45:20.522Z,1019.83
2018-08-23T01:46:21.109Z,1019.85
2018-08-23T01:47:21.697Z,1019.89
2018-08-23T01:48:22.330Z,1019.83
2018-08-23T01:49:22.918Z,1019.86
2018-08-23T01:50:23.503Z,1019.77
2018-08-23T01:51:24.089Z,1019.79
2018-08-23T01:52:24.727Z,1019.73
2018-08-23T01:53:25.320Z,1019.73
2018-08-23T01:54:25.948Z,1019.74
2018-08-23T01:55:26.531Z,1019.72
2018-08-23T01:56:27.119Z,1019.68
2018-08-23T01:57:27.704Z,1019.66
2018-08-23T01:58:28.291Z,1019.62
2018-08-23T01:59:28.880Z,1019.61
2018-08-23T02:00:29.465Z,1019.67
2018-08-23T02:01:30.046Z,1019.67
2018-08-23T02:02:30.688Z,1019.63
2018-08-23T02:03:31.266Z,1019.69
2018-08-23T02:04:31.855Z,1019.62
2018-08-23T02:05:32.441Z,1019.67
2018-08-23T02:06:33.023Z,1019.64
2018-08-23T02:07:33.609Z,1019.66
2018-08-23T02:08:34.190Z,1019.64
2018-08-23T02:09:34.772Z,1019.54
2018-08-23T02:10:35.404Z,1019.59
2018-08-23T02:11:35.992Z,1019.62
2018-08-23T02:12:36.574Z,1019.59
2018-08-23T02:13:37.212Z,1019.56
2018-08-23T02:14:37.793Z,1019.54
2018-08-23T02:15:38.380Z,1019.53
2018-08-23T02:16:38.967Z,1019.59
2018-08-23T02:17:39.604Z,1019.52
2018-08-23T02:18:40.192Z,1019.50
2018-08-23T02:19:40.775Z,1019.53
2018-08-23T02:20:41.365Z,1019.49
2018-08-23T02:21:41.951Z,1019.57
2018-08-23T02:22:42.534Z,1019.57
2018-08-23T02:23:43.113Z,1019.51
2018-08-23T02:24:43.694Z,1019.58
2018-08-23T02:25:49.335Z,1019.57
2018-08-23T02:26:49.971Z,1019.45
2018-08-23T02:27:50.553Z,1019.51
2018-08-23T02:28:51.185Z,1019.60
2018-08-23T02:29:51.774Z,1019.59
2018-08-23T02:30:52.407Z,1019.61
2018-08-23T02:31:52.994Z,1019.58
2018-08-23T02:32:53.575Z,1019.56
2018-08-23T02:33:54.159Z,1019.58
2018-08-23T02:34:54.753Z,1019.63
2018-08-23T02:35:55.333Z,1019.58
2018-08-23T02:36:55.916Z,1019.64
2018-08-23T02:37:56.503Z,1019.58
2018-08-23T02:38:57.142Z,1019.61
2018-08-23T02:39:57.721Z,1019.60
2018-08-23T02:40:58.308Z,1019.59
2018-08-23T02:41:58.943Z,1019.67
2018-08-23T02:42:59.531Z,1019.62
2018-08-23T02:44:00.160Z,1019.57
2018-08-23T02:45:00.753Z,1019.60
2018-08-23T02:46:01.345Z,1019.67
2018-08-23T02:47:01.979Z,1019.68
2018-08-23T02:48:02.559Z,1019.60
2018-08-23T02:49:03.146Z,1019.60
2018-08-23T02:50:03.731Z,1019.65
2018-08-23T02:51:04.371Z,1019.66
2018-08-23T02:52:04.952Z,1019.60
2018-08-23T02:53:05.538Z,1019.60
2018-08-23T02:54:06.125Z,1019.58
2018-08-23T02:55:06.762Z,1019.53
2018-08-23T02:56:07.343Z,1019.61
2018-08-23T02:57:07.927Z,1019.59
2018-08-23T02:58:08.512Z,1019.55
2018-08-23T02:59:09.095Z,1019.53
2018-08-23T03:00:09.677Z,1019.50
2018-08-23T03:01:10.267Z,1019.50
2018-08-23T03:02:10.899Z,1019.59
2018-08-23T03:03:11.577Z,1019.53
2018-08-23T03:04:12.162Z,1019.48
2018-08-23T03:05:12.738Z,1019.53
2018-08-23T03:06:13.323Z,1019.52
2018-08-23T03:07:13.911Z,1019.53
2018-08-23T03:08:14.497Z,1019.49
2018-08-23T03:09:15.077Z,1019.47
2018-08-23T03:10:15.665Z,1019.46
2018-08-23T03:11:16.300Z,1019.48
2018-08-23T03:12:16.880Z,1019.50
2018-08-23T03:13:17.468Z,1019.43
2018-08-23T03:14:18.053Z,1019.54
2018-08-23T03:15:18.639Z,1019.54
2018-08-23T03:16:19.223Z,1019.51
2018-08-23T03:17:19.808Z,1019.57
2018-08-23T03:18:20.444Z,1019.49
2018-08-23T03:19:21.032Z,1019.50
2018-08-23T03:20:21.616Z,1019.51
2018-08-23T03:21:22.199Z,1019.49
2018-08-23T03:22:22.788Z,1019.45
2018-08-23T03:23:23.375Z,1019.41
2018-08-23T03:24:23.960Z,1019.44
2018-08-23T03:25:24.547Z,1019.32
2018-08-23T03:26:25.132Z,1019.52
2018-08-23T03:27:25.816Z,1019.50
2018-08-23T03:28:26.404Z,1019.47
2018-08-23T03:29:27.036Z,1019.44
2018-08-23T03:30:27.622Z,1019.50
2018-08-23T03:31:28.203Z,1019.52
2018-08-23T03:32:28.793Z,1019.56
2018-08-23T03:33:29.379Z,1019.50
2018-08-23T03:34:30.011Z,1019.50
2018-08-23T03:35:30.599Z,1019.49
2018-08-23T03:36:31.208Z,1019.55
2018-08-23T03:37:32.667Z,1019.56
2018-08-23T03:38:33.252Z,1019.49
2018-08-23T03:39:33.832Z,1019.46
2018-08-23T03:40:34.421Z,1019.46
2018-08-23T03:41:35.003Z,1019.46
2018-08-23T03:42:35.585Z,1019.41
2018-08-23T03:43:36.175Z,1019.39
2018-08-23T03:44:36.762Z,1019.48
2018-08-23T03:45:37.345Z,1019.31
2018-08-23T03:46:37.979Z,1019.39
2018-08-23T03:47:38.567Z,1019.41
2018-08-23T03:48:39.195Z,1019.41
2018-08-23T03:49:39.781Z,1019.36
2018-08-23T03:50:40.369Z,1019.36
2018-08-23T03:51:40.993Z,1019.41
2018-08-23T03:52:41.627Z,1019.35
2018-08-23T03:53:42.214Z,1019.39
2018-08-23T03:54:42.802Z,1019.31
2018-08-23T03:55:43.381Z,1019.39
2018-08-23T03:56:44.014Z,1019.33
2018-08-23T03:57:44.644Z,1019.36
2018-08-23T03:58:45.230Z,1019.38
2018-08-23T03:59:45.814Z,1019.36
2018-08-23T04:00:46.401Z,1019.38
2018-08-23T04:01:47.032Z,1019.36
2018-08-23T04:02:47.613Z,1019.35
2018-08-23T04:03:48.244Z,1019.37
2018-08-23T04:04:48.833Z,1019.42
2018-08-23T04:05:49.469Z,1019.36
2018-08-23T04:06:50.054Z,1019.44
2018-08-23T04:07:50.638Z,1019.38
2018-08-23T04:08:51.273Z,1019.36
2018-08-23T04:09:51.951Z,1019.46
2018-08-23T04:10:52.537Z,1019.40
2018-08-23T04:11:53.122Z,1019.28
2018-08-23T04:12:53.709Z,1019.35
2018-08-23T04:13:54.294Z,1019.26
2018-08-23T04:14:54.874Z,1019.31
2018-08-23T04:15:55.465Z,1019.35
2018-08-23T04:16:56.099Z,1019.30
2018-08-23T04:17:56.685Z,1019.34
2018-08-23T04:18:57.272Z,1019.36
2018-08-23T04:19:57.855Z,1019.28
2018-08-23T04:20:58.439Z,1019.28
2018-08-23T04:21:59.021Z,1019.33
2018-08-23T04:22:59.680Z,1019.37
2018-08-23T04:24:00.186Z,1019.28
2018-08-23T04:25:00.771Z,1019.39
2018-08-23T04:26:01.355Z,1019.32
2018-08-23T04:27:01.988Z,1019.30
2018-08-23T04:28:02.576Z,1019.33
2018-08-23T04:29:03.213Z,1019.38
2018-08-23T04:30:03.796Z,1019.38
2018-08-23T04:31:04.376Z,1019.35
2018-08-23T04:32:05.015Z,1019.38
2018-08-23T04:33:05.603Z,1019.39
2018-08-23T04:34:06.188Z,1019.34
2018-08-23T04:35:06.773Z,1019.35
2018-08-23T04:36:07.360Z,1019.28
2018-08-23T04:37:07.945Z,1019.30
2018-08-23T04:38:08.531Z,1019.28
2018-08-23T04:39:09.118Z,1019.28
2018-08-23T04:40:09.751Z,1019.29
2018-08-23T04:41:10.335Z,1019.23
2018-08-23T04:42:10.923Z,1019.26
2018-08-23T04:43:11.561Z,1019.25
2018-08-23T04:44:12.091Z,1019.32
2018-08-23T04:45:12.680Z,1019.31
2018-08-23T04:46:13.257Z,1019.36
2018-08-23T04:47:13.887Z,1019.26
2018-08-23T04:48:14.471Z,1019.30
2018-08-23T04:49:15.110Z,1019.33
2018-08-23T04:50:15.746Z,1019.30
2018-08-23T04:51:16.331Z,1019.37
2018-08-23T04:52:16.910Z,1019.35
2018-08-23T04:53:17.494Z,1019.36
2018-08-23T04:54:18.076Z,1019.42
2018-08-23T04:55:18.662Z,1019.44
2018-08-23T04:56:19.247Z,1019.48
2018-08-23T04:57:19.835Z,1019.43
2018-08-23T04:58:20.418Z,1019.53
2018-08-23T04:59:21.002Z,1019.52
2018-08-23T05:00:21.584Z,1019.54
2018-08-23T05:01:22.167Z,1019.52
2018-08-23T05:02:22.757Z,1019.48
2018-08-23T05:03:23.351Z,1019.48
2018-08-23T05:04:23.927Z,1019.55
2018-08-23T05:05:24.573Z,1019.53
2018-08-23T05:06:25.154Z,1019.61
2018-08-23T05:07:25.791Z,1019.50
2018-08-23T05:08:26.376Z,1019.52
2018-08-23T05:09:27.010Z,1019.49
2018-08-23T05:10:27.602Z,1019.45
2018-08-23T05:11:28.185Z,1019.43
2018-08-23T05:12:28.823Z,1019.48
2018-08-23T05:13:29.402Z,1019.43
2018-08-23T05:14:29.988Z,1019.47
2018-08-23T05:15:30.576Z,1019.48
2018-08-23T05:16:31.159Z,1019.50
2018-08-23T05:17:31.746Z,1019.46
2018-08-23T05:18:32.374Z,1019.48
2018-08-23T05:19:32.961Z,1019.47
2018-08-23T05:20:33.550Z,1019.52
2018-08-23T05:21:34.133Z,1019.51
2018-08-23T05:22:34.719Z,1019.56
2018-08-23T05:23:35.297Z,1019.58
2018-08-23T05:24:35.936Z,1019.62
2018-08-23T05:25:36.572Z,1019.64
2018-08-23T05:26:37.159Z,1019.61
2018-08-23T05:27:37.795Z,1019.60
2018-08-23T05:28:38.384Z,1019.60
2018-08-23T05:29:38.970Z,1019.61
2018-08-23T05:30:39.648Z,1019.66
2018-08-23T05:31:40.232Z,1019.68
2018-08-23T05:32:40.916Z,1019.62
2018-08-23T05:33:41.496Z,1019.76
2018-08-23T05:34:42.177Z,1019.70
2018-08-23T05:35:42.762Z,1019.72
2018-08-23T05:36:43.344Z,1019.69
2018-08-23T05:37:43.933Z,1019.74
2018-08-23T05:38:44.514Z,1019.69
2018-08-23T05:39:45.102Z,1019.67
2018-08-23T05:40:45.689Z,1019.80
2018-08-23T05:41:46.273Z,1019.79
2018-08-23T05:42:46.856Z,1019.72
2018-08-23T05:43:47.439Z,1019.71
2018-08-23T05:44:48.026Z,1019.83
2018-08-23T05:45:48.613Z,1019.77
2018-08-23T05:46:49.250Z,1019.76
2018-08-23T05:47:49.880Z,1019.79
2018-08-23T05:48:50.462Z,1019.85
2018-08-23T05:49:51.049Z,1019.85
2018-08-23T05:50:51.639Z,1019.87
2018-08-23T05:51:52.221Z,1019.86
2018-08-23T05:52:52.806Z,1019.85
2018-08-23T05:53:53.441Z,1019.94
2018-08-23T05:54:54.026Z,1019.91
2018-08-23T05:55:54.612Z,1019.94
2018-08-23T05:56:55.209Z,1019.91
2018-08-23T05:57:55.783Z,1019.97
2018-08-23T05:58:56.364Z,1019.98
2018-08-23T05:59:56.953Z,1019.96
2018-08-23T06:00:57.583Z,1020.01
2018-08-23T06:01:58.170Z,1019.97
2018-08-23T06:02:58.756Z,1019.94
2018-08-23T06:03:59.389Z,1020.00
2018-08-23T06:05:00.024Z,1019.96
2018-08-23T06:06:00.613Z,1019.98
2018-08-23T06:07:01.244Z,1019.93
2018-08-23T06:08:01.830Z,1020.00
2018-08-23T06:09:02.418Z,1019.91
2018-08-23T06:10:03.005Z,1019.94
2018-08-23T06:11:03.584Z,1019.97
2018-08-23T06:12:04.173Z,1020.05
2018-08-23T06:13:04.804Z,1019.96
2018-08-23T06:14:05.417Z,1020.05
2018-08-23T06:15:05.979Z,1019.96
2018-08-23T06:16:06.570Z,1020.04
2018-08-23T06:17:07.152Z,1020.04
2018-08-23T06:18:07.738Z,1020.07
2018-08-23T06:19:08.315Z,1020.07
2018-08-23T06:20:09.459Z,1020.08
2018-08-23T06:21:09.538Z,1020.11
2018-08-23T06:22:10.119Z,1020.11
2018-08-23T06:23:10.708Z,1020.11
2018-08-23T06:24:11.290Z,1020.07
2018-08-23T06:25:11.878Z,1020.04
2018-08-23T06:26:12.459Z,1020.06
2018-08-23T06:27:13.150Z,1020.13
2018-08-23T06:28:13.679Z,1020.14
2018-08-23T06:29:14.268Z,1020.11
2018-08-23T06:30:14.903Z,1020.15
2018-08-23T06:31:15.488Z,1020.11
2018-08-23T06:32:16.077Z,1020.18
2018-08-23T06:33:16.928Z,1020.21
2018-08-23T06:34:17.283Z,1020.20
2018-08-23T06:35:17.879Z,1020.19
2018-08-23T06:36:18.508Z,1020.20
2018-08-23T06:37:19.093Z,1020.13
2018-08-23T06:38:19.731Z,1020.13
2018-08-23T06:39:20.319Z,1020.14
2018-08-23T06:40:20.947Z,1020.20
2018-08-23T06:41:21.529Z,1020.25
2018-08-23T06:42:22.119Z,1020.29
2018-08-23T06:43:22.705Z,1020.29
2018-08-23T06:44:23.384Z,1020.37
2018-08-23T06:45:23.938Z,1020.31
2018-08-23T06:46:24.608Z,1020.34
2018-08-23T06:47:25.198Z,1020.33
2018-08-23T06:48:25.785Z,1020.29
2018-08-23T06:49:26.420Z,1020.24
2018-08-23T06:50:27.004Z,1020.28
2018-08-23T06:51:27.588Z,1020.26
2018-08-23T06:52:28.175Z,1020.24
2018-08-23T06:53:28.761Z,1020.25
2018-08-23T06:54:29.387Z,1020.27
2018-08-23T06:55:29.972Z,1020.26
2018-08-23T06:56:30.605Z,1020.28
2018-08-23T06:57:31.193Z,1020.21
2018-08-23T06:58:31.776Z,1020.21
2018-08-23T06:59:32.364Z,1020.22
2018-08-23T07:00:32.948Z,1020.26
2018-08-23T07:01:33.533Z,1020.31
2018-08-23T07:02:34.119Z,1020.38
2018-08-23T07:03:34.700Z,1020.31
2018-08-23T07:04:35.336Z,1020.31
2018-08-23T07:05:35.976Z,1020.26
2018-08-23T07:06:36.605Z,1020.31
2018-08-23T07:07:37.121Z,1020.37
2018-08-23T07:08:37.706Z,1020.36
2018-08-23T07:09:38.342Z,1020.26
2018-08-23T07:10:38.967Z,1020.29
2018-08-23T07:11:39.520Z,1020.29
2018-08-23T07:12:40.099Z,1020.30
2018-08-23T07:13:40.682Z,1020.29
2018-08-23T07:14:41.315Z,1020.27
2018-08-23T07:15:41.894Z,1020.31
2018-08-23T07:16:42.482Z,1020.36
2018-08-23T07:17:43.232Z,1020.33
2018-08-23T07:18:43.656Z,1020.28
2018-08-23T07:19:44.240Z,1020.30
2018-08-23T07:20:44.872Z,1020.39
2018-08-23T07:21:45.509Z,1020.40
2018-08-23T07:22:46.092Z,1020.36
2018-08-23T07:23:46.679Z,1020.41
2018-08-23T07:24:47.263Z,1020.30
2018-08-23T07:25:47.849Z,1020.35
2018-08-23T07:26:48.468Z,1020.43
2018-08-23T07:27:49.017Z,1020.40
2018-08-23T07:28:49.647Z,1020.35
2018-08-23T07:29:50.325Z,1020.40
2018-08-23T07:30:50.912Z,1020.35
2018-08-23T07:31:51.493Z,1020.49
2018-08-23T07:32:52.081Z,1020.36
2018-08-23T07:33:52.711Z,1020.39
2018-08-23T07:34:53.295Z,1020.45
2018-08-23T07:35:53.900Z,1020.44
2018-08-23T07:36:54.469Z,1020.46
2018-08-23T07:37:55.055Z,1020.39
2018-08-23T07:38:55.637Z,1020.49
2018-08-23T07:39:56.273Z,1020.55
2018-08-23T07:40:56.860Z,1020.46
2018-08-23T07:41:57.473Z,1020.53
2018-08-23T07:42:58.079Z,1020.50
2018-08-23T07:43:58.659Z,1020.48
2018-08-23T07:44:59.240Z,1020.51
2018-08-23T07:45:59.830Z,1020.54
2018-08-23T07:47:00.420Z,1020.47
2018-08-23T07:48:01.003Z,1020.53
2018-08-23T07:49:01.634Z,1020.48
2018-08-23T07:50:02.275Z,1020.55
2018-08-23T07:51:02.861Z,1020.47
2018-08-23T07:52:03.458Z,1020.48
2018-08-23T07:53:04.054Z,1020.53
2018-08-23T07:54:04.618Z,1020.53
2018-08-23T07:55:05.198Z,1020.55
2018-08-23T07:56:05.832Z,1020.52
2018-08-23T07:57:06.421Z,1020.58
2018-08-23T07:58:07.007Z,1020.60
2018-08-23T07:59:07.592Z,1020.51
2018-08-23T08:00:08.177Z,1020.47
2018-08-23T08:01:08.810Z,1020.56
2018-08-23T08:02:09.390Z,1020.60
2018-08-23T08:03:09.982Z,1020.63
2018-08-23T08:04:10.566Z,1020.60
2018-08-23T08:05:11.146Z,1020.65
2018-08-23T08:06:11.786Z,1020.71
2018-08-23T08:07:12.372Z,1020.70
2018-08-23T08:08:13.009Z,1020.67
2018-08-23T08:09:13.587Z,1020.64
2018-08-23T08:10:14.173Z,1020.72
2018-08-23T08:11:14.756Z,1020.64
2018-08-23T08:12:15.458Z,1020.72
2018-08-23T08:13:15.985Z,1020.64
2018-08-23T08:14:16.563Z,1020.68
2018-08-23T08:15:17.228Z,1020.68
2018-08-23T08:16:17.771Z,1020.73
2018-08-23T08:17:18.318Z,1020.79
2018-08-23T08:18:18.901Z,1020.79
2018-08-23T08:19:19.488Z,1020.79
2018-08-23T08:20:20.069Z,1020.86
2018-08-23T08:21:20.660Z,1020.78
2018-08-23T08:22:21.244Z,1020.79
2018-08-23T08:23:21.825Z,1020.82
2018-08-23T08:24:22.412Z,1020.79
2018-08-23T08:25:23.043Z,1020.79
2018-08-23T08:26:23.783Z,1020.86
2018-08-23T08:27:24.362Z,1020.87
2018-08-23T08:28:25.150Z,1020.79
2018-08-23T08:29:25.729Z,1020.78
2018-08-23T08:30:26.315Z,1020.81
2018-08-23T08:31:26.900Z,1020.88
2018-08-23T08:32:27.485Z,1020.92
2018-08-23T08:33:28.071Z,1020.91
2018-08-23T08:34:28.651Z,1020.87
2018-08-23T08:35:29.240Z,1020.89
2018-08-23T08:36:29.834Z,1020.82
2018-08-23T08:37:30.457Z,1020.87
2018-08-23T08:38:31.044Z,1020.88
2018-08-23T08:39:31.632Z,1020.87
2018-08-23T08:40:32.218Z,1020.81
2018-08-23T08:41:32.804Z,1020.87
2018-08-23T08:42:33.385Z,1020.78
2018-08-23T08:43:34.023Z,1020.94
2018-08-23T08:44:34.602Z,1020.90
2018-08-23T08:45:35.183Z,1020.87
2018-08-23T08:46:35.820Z,1020.98
2018-08-23T08:47:36.405Z,1021.01
2018-08-23T08:48:37.043Z,1020.98
2018-08-23T08:49:37.630Z,1020.95
2018-08-23T08:50:38.249Z,1020.91
2018-08-23T08:51:38.802Z,1020.90
2018-08-23T08:52:39.384Z,1020.95
2018-08-23T08:53:39.971Z,1020.98
2018-08-23T08:54:40.602Z,1020.96
2018-08-23T08:55:41.187Z,1021.00
2018-08-23T08:56:41.796Z,1021.04
2018-08-23T08:57:42.423Z,1020.99
2018-08-23T08:58:42.938Z,1021.05
2018-08-23T08:59:43.522Z,1021.05
2018-08-23T09:00:44.155Z,1021.01
2018-08-23T09:01:44.738Z,1021.01
2018-08-23T09:02:45.329Z,1021.05
2018-08-23T09:03:46.008Z,1020.99
2018-08-23T09:04:46.594Z,1021.03
2018-08-23T09:05:47.179Z,1020.99
2018-08-23T09:06:47.767Z,1021.12
2018-08-23T09:07:48.398Z,1021.14
2018-08-23T09:08:49.033Z,1021.11
2018-08-23T09:09:49.671Z,1021.14
2018-08-23T09:10:50.237Z,1021.18
2018-08-23T09:11:50.824Z,1021.19
2018-08-23T09:12:51.409Z,1021.19
2018-08-23T09:13:51.996Z,1021.17
2018-08-23T09:14:52.586Z,1021.15
2018-08-23T09:15:53.169Z,1021.20
2018-08-23T09:16:53.907Z,1021.23
2018-08-23T09:17:54.490Z,1021.23
2018-08-23T09:18:55.081Z,1021.22
2018-08-23T09:19:55.709Z,1021.23
2018-08-23T09:20:56.307Z,1021.27
2018-08-23T09:21:56.878Z,1021.29
2018-08-23T09:22:57.465Z,1021.23
2018-08-23T09:23:58.039Z,1021.32
2018-08-23T09:24:58.681Z,1021.20
2018-08-23T09:25:59.259Z,1021.31
2018-08-23T09:26:59.854Z,1021.33
2018-08-23T09:28:00.441Z,1021.35
2018-08-23T09:29:01.026Z,1021.31
2018-08-23T09:30:01.604Z,1021.39
2018-08-23T09:31:02.188Z,1021.37
2018-08-23T09:32:03.667Z,1021.42
2018-08-23T09:33:04.207Z,1021.45
2018-08-23T09:34:04.786Z,1021.53
2018-08-23T09:35:05.398Z,1021.39
2018-08-23T09:36:06.005Z,1021.50
2018-08-23T09:37:06.590Z,1021.55
2018-08-23T09:38:07.222Z,1021.55
2018-08-23T09:39:07.809Z,1021.48
2018-08-23T09:40:08.443Z,1021.54
2018-08-23T09:41:09.026Z,1021.62
2018-08-23T09:42:09.611Z,1021.48
2018-08-23T09:43:10.187Z,1021.49
2018-08-23T09:44:10.777Z,1021.54
2018-08-23T09:45:11.361Z,1021.54
2018-08-23T09:46:11.948Z,1021.63
2018-08-23T09:47:12.533Z,1021.54
2018-08-23T09:48:13.169Z,1021.47
2018-08-23T09:49:13.754Z,1021.58
2018-08-23T09:50:14.484Z,1021.57
2018-08-23T09:51:15.071Z,1021.56
2018-08-23T09:52:15.614Z,1021.61
2018-08-23T09:53:16.149Z,1021.52
2018-08-23T09:54:16.785Z,1021.59
2018-08-23T09:55:17.375Z,1021.49
2018-08-23T09:56:18.006Z,1021.60
2018-08-23T09:57:18.595Z,1021.56
2018-08-23T09:58:19.180Z,1021.53
2018-08-23T09:59:19.772Z,1021.46
2018-08-23T10:00:20.399Z,1021.53
2018-08-23T10:01:20.985Z,1021.55
2018-08-23T10:02:21.571Z,1021.60
2018-08-23T10:03:22.202Z,1021.58
2018-08-23T10:04:22.862Z,1021.55
2018-08-23T10:05:23.423Z,1021.54
2018-08-23T10:06:24.052Z,1021.53
2018-08-23T10:07:24.639Z,1021.60
2018-08-23T10:08:25.276Z,1021.57
2018-08-23T10:09:25.857Z,1021.60
2018-08-23T10:10:26.446Z,1021.63
2018-08-23T10:11:27.112Z,1021.59
2018-08-23T10:12:27.659Z,1021.60
2018-08-23T10:13:28.246Z,1021.53
2018-08-23T10:14:28.834Z,1021.53
2018-08-23T10:15:29.429Z,1021.55
2018-08-23T10:16:30.005Z,1021.56
2018-08-23T10:17:30.591Z,1021.55
2018-08-23T10:18:31.270Z,1021.61
2018-08-23T10:19:31.855Z,1021.51
2018-08-23T10:20:32.447Z,1021.53
2018-08-23T10:21:33.029Z,1021.56
2018-08-23T10:22:33.618Z,1021.58
2018-08-23T10:23:34.253Z,1021.66
2018-08-23T10:24:34.839Z,1021.63
2018-08-23T10:25:35.474Z,1021.64
2018-08-23T10:26:36.332Z,1021.68
2018-08-23T10:27:36.849Z,1021.60
2018-08-23T10:28:37.441Z,1021.60
2018-08-23T10:29:38.028Z,1021.60
2018-08-23T10:30:38.613Z,1021.64
2018-08-23T10:31:39.199Z,1021.57
2018-08-23T10:32:39.791Z,1021.62
2018-08-23T10:33:40.424Z,1021.63
2018-08-23T10:34:41.017Z,1021.64
2018-08-23T10:35:41.600Z,1021.66
2018-08-23T10:36:42.194Z,1021.68
2018-08-23T10:37:42.783Z,1021.72
2018-08-23T10:38:43.374Z,1021.66
2018-08-23T10:39:43.964Z,1021.63
2018-08-23T10:40:44.604Z,1021.69
2018-08-23T10:41:45.198Z,1021.63
2018-08-23T10:42:45.937Z,1021.67
2018-08-23T10:43:46.526Z,1021.58
2018-08-23T10:44:47.114Z,1021.61
2018-08-23T10:45:47.706Z,1021.57
2018-08-23T10:46:48.296Z,1021.55
2018-08-23T10:47:48.887Z,1021.63
2018-08-23T10:48:49.478Z,1021.58
2018-08-23T10:49:50.068Z,1021.59
2018-08-23T10:50:50.697Z,1021.68
2018-08-23T10:51:51.245Z,1021.62
2018-08-23T10:52:51.836Z,1021.62
2018-08-23T10:53:52.475Z,1021.65
2018-08-23T10:54:53.065Z,1021.64
2018-08-23T10:55:53.703Z,1021.62
2018-08-23T10:56:54.337Z,1021.58
2018-08-23T10:57:54.981Z,1021.61
2018-08-23T10:58:55.592Z,1021.57
2018-08-23T10:59:56.160Z,1021.68
2018-08-23T11:00:56.793Z,1021.56
2018-08-23T11:01:57.436Z,1021.57
2018-08-23T11:02:58.026Z,1021.54
2018-08-23T11:03:58.618Z,1021.54
2018-08-23T11:04:59.209Z,1021.64
2018-08-23T11:05:59.800Z,1021.56
2018-08-23T11:07:00.389Z,1021.60
2018-08-23T11:08:00.984Z,1021.61
2018-08-23T11:09:01.627Z,1021.54
2018-08-23T11:10:02.264Z,1021.53
2018-08-23T11:11:02.853Z,1021.58
2018-08-23T11:12:03.445Z,1021.57
2018-08-23T11:13:04.085Z,1021.54
2018-08-23T11:14:04.682Z,1021.48
2018-08-23T11:15:05.311Z,1021.44
2018-08-23T11:16:05.906Z,1021.52
2018-08-23T11:17:06.698Z,1021.51
2018-08-23T11:18:07.079Z,1021.54
2018-08-23T11:19:07.664Z,1021.53
2018-08-23T11:20:08.258Z,1021.49
2018-08-23T11:21:08.900Z,1021.49
2018-08-23T11:22:09.493Z,1021.50
2018-08-23T11:23:10.105Z,1021.48
2018-08-23T11:24:10.672Z,1021.45
2018-08-23T11:25:11.312Z,1021.35
2018-08-23T11:26:11.903Z,1021.39
2018-08-23T11:27:12.497Z,1021.45
2018-08-23T11:28:13.082Z,1021.42
2018-08-23T11:29:13.775Z,1021.41
2018-08-23T11:30:19.517Z,1021.43
2018-08-23T11:31:20.258Z,1021.39
2018-08-23T11:32:20.852Z,1021.44
2018-08-23T11:33:21.543Z,1021.41
2018-08-23T11:34:22.233Z,1021.38
2018-08-23T11:35:22.824Z,1021.35
2018-08-23T11:36:23.420Z,1021.33
2018-08-23T11:37:24.012Z,1021.36
2018-08-23T11:38:24.606Z,1021.37
2018-08-23T11:39:25.197Z,1021.30
2018-08-23T11:40:25.792Z,1021.33
2018-08-23T11:41:26.384Z,1021.34
2018-08-23T11:42:26.982Z,1021.38
2018-08-23T11:43:27.615Z,1021.31
2018-08-23T11:44:28.202Z,1021.34
2018-08-23T11:45:28.793Z,1021.38
2018-08-23T11:46:29.438Z,1021.36
2018-08-23T11:47:30.031Z,1021.39
2018-08-23T11:48:30.665Z,1021.36
2018-08-23T11:49:31.260Z,1021.40
2018-08-23T11:50:32.000Z,1021.33
2018-08-23T11:51:32.592Z,1021.37
2018-08-23T11:52:33.187Z,1021.26
2018-08-23T11:53:33.979Z,1021.35
2018-08-23T11:54:34.379Z,1021.33
2018-08-23T11:55:34.972Z,1021.31
2018-08-23T11:56:35.566Z,1021.37
2018-08-23T11:57:36.160Z,1021.37
2018-08-23T11:58:36.756Z,1021.23
2018-08-23T11:59:37.346Z,1021.37
2018-08-23T12:00:37.937Z,1021.20
2018-08-23T12:01:38.529Z,1021.17
2018-08-23T12:02:39.129Z,1021.21
2018-08-23T12:03:39.723Z,1021.27
2018-08-23T12:05:41.983Z,1021.16
2018-08-23T12:06:42.622Z,1021.20
2018-08-23T12:07:43.223Z,1021.22
2018-08-23T12:08:43.850Z,1021.30
2018-08-23T12:09:44.444Z,1021.25
2018-08-23T12:10:45.066Z,1021.26
2018-08-23T12:11:45.652Z,1021.24
2018-08-23T12:12:46.239Z,1021.35
2018-08-23T12:13:46.827Z,1021.32